createdAt,value
2023-04-16T00:00:40.134Z,101695.56
2023-04-16T00:03:06.849Z,101694.84
2023-04-16T00:05:33.505Z,101692.72
2023-04-16T00:07:59.999Z,101695.13
2023-04-16T00:10:26.495Z,101689.94
2023-04-16T00:12:52.945Z,101689.94
2023-04-16T00:15:19.420Z,101699.97
2023-04-16T00:17:46.009Z,101687.25
2023-04-16T00:20:12.587Z,101687.19
2023-04-16T00:22:39.420Z,101686.59
2023-04-16T00:25:06.342Z,101686.41
2023-04-16T00:27:32.830Z,101685.03
2023-04-16T00:29:59.305Z,101686.66
2023-04-16T00:32:25.885Z,101691.41
2023-04-16T00:34:52.344Z,101691.53
2023-04-16T00:37:18.787Z,101693.38
2023-04-16T00:39:45.389Z,101702.13
2023-04-16T00:42:11.902Z,101693.94
2023-04-16T00:44:38.396Z,101696.97
2023-04-16T00:47:04.985Z,101697.75
2023-04-16T00:49:31.900Z,101695.75
2023-04-16T00:51:58.587Z,101698.22
2023-04-16T00:54:25.293Z,101696.91
2023-04-16T00:56:51.812Z,101689.31
2023-04-16T00:59:18.555Z,101689.78
2023-04-16T01:01:45.101Z,101689.88
2023-04-16T01:04:11.933Z,101697.16
2023-04-16T01:06:38.504Z,101705.84
2023-04-16T01:09:05.641Z,101705.56
2023-04-16T01:11:32.134Z,101698.97
2023-04-16T01:13:58.584Z,101700.09
2023-04-16T01:16:26.829Z,101711.53
2023-04-16T01:18:53.372Z,101714.81
2023-04-16T01:21:19.865Z,101720.03
2023-04-16T01:23:46.371Z,101723.44
2023-04-16T01:26:12.901Z,101718.81
2023-04-16T01:28:39.403Z,101725.47
2023-04-16T01:31:05.921Z,101719.16
2023-04-16T01:33:32.415Z,101718.97
2023-04-16T01:35:58.874Z,101724.59
2023-04-16T01:38:25.346Z,101724.31
2023-04-16T01:40:59.414Z,101730.84
2023-04-16T01:43:26.108Z,101721.19
2023-04-16T01:45:57.062Z,101724.94
2023-04-16T01:48:23.499Z,101724.38
2023-04-16T01:50:50.013Z,101725.22
2023-04-16T01:53:16.464Z,101725.13
2023-04-16T01:55:42.935Z,101724.91
2023-04-16T01:58:11.048Z,101720.34
2023-04-16T02:00:37.642Z,101720.19
2023-04-16T02:03:04.410Z,101725.00
2023-04-16T02:05:31.132Z,101719.50
2023-04-16T02:07:57.677Z,101711.94
2023-04-16T02:10:24.253Z,101718.22
2023-04-16T02:12:51.025Z,101718.13
2023-04-16T02:15:17.630Z,101724.53
2023-04-16T02:17:44.093Z,101725.47
2023-04-16T02:20:11.265Z,101732.66
2023-04-16T02:22:37.737Z,101722.91
2023-04-16T02:25:04.540Z,101714.84
2023-04-16T02:27:31.018Z,101730.28
2023-04-16T02:29:57.485Z,101732.84
2023-04-16T02:32:24.101Z,101730.66
2023-04-16T02:34:50.864Z,101736.13
2023-04-16T02:37:17.368Z,101728.72
2023-04-16T02:39:44.091Z,101733.56
2023-04-16T02:42:10.689Z,101734.78
2023-04-16T02:44:37.152Z,101720.31
2023-04-16T02:47:03.658Z,101728.72
2023-04-16T02:49:30.283Z,101730.44
2023-04-16T02:51:56.745Z,101728.38
2023-04-16T02:54:23.247Z,101729.06
2023-04-16T02:56:49.732Z,101728.13
2023-04-16T02:59:16.204Z,101741.22
2023-04-16T03:01:42.709Z,101744.75
2023-04-16T03:04:09.310Z,101740.88
2023-04-16T03:06:36.071Z,101734.41
2023-04-16T03:09:02.523Z,101733.88
2023-04-16T03:11:28.974Z,101728.13
2023-04-16T03:13:56.617Z,101735.63
2023-04-16T03:16:23.295Z,101738.78
2023-04-16T03:18:49.791Z,101744.66
2023-04-16T03:21:16.260Z,101739.91
2023-04-16T03:23:42.736Z,101739.28
2023-04-16T03:26:09.205Z,101741.38
2023-04-16T03:28:35.866Z,101732.59
2023-04-16T03:31:02.397Z,101742.50
2023-04-16T03:33:28.922Z,101744.50
2023-04-16T03:35:58.908Z,101740.91
2023-04-16T03:38:26.699Z,101742.75
2023-04-16T03:40:53.250Z,101747.28
2023-04-16T03:43:19.723Z,101748.53
2023-04-16T03:45:47.026Z,101737.38
2023-04-16T03:48:13.712Z,101743.69
2023-04-16T03:50:40.233Z,101742.13
2023-04-16T03:53:06.722Z,101742.25
2023-04-16T03:55:33.171Z,101756.06
2023-04-16T03:58:03.041Z,101748.34
2023-04-16T04:00:30.506Z,101746.34
2023-04-16T04:02:57.161Z,101748.94
2023-04-16T04:05:23.843Z,101745.69
2023-04-16T04:07:50.479Z,101749.56
2023-04-16T04:10:17.010Z,101747.78
2023-04-16T04:12:43.930Z,101758.56
2023-04-16T04:15:11.651Z,101754.59
2023-04-16T04:17:38.212Z,101751.88
2023-04-16T04:20:05.205Z,101754.53
2023-04-16T04:22:31.683Z,101759.97
2023-04-16T04:24:58.159Z,101765.56
2023-04-16T04:27:24.651Z,101759.03
2023-04-16T04:29:51.551Z,101764.56
2023-04-16T04:32:18.037Z,101761.97
2023-04-16T04:34:44.586Z,101769.47
2023-04-16T04:37:11.211Z,101767.41
2023-04-16T04:39:37.672Z,101763.94
2023-04-16T04:42:04.334Z,101767.34
2023-04-16T04:44:30.859Z,101771.19
2023-04-16T04:46:57.360Z,101776.28
2023-04-16T04:49:23.854Z,101774.47
2023-04-16T04:51:50.513Z,101774.03
2023-04-16T04:54:16.963Z,101776.81
2023-04-16T04:56:45.868Z,101777.59
2023-04-16T04:59:12.715Z,101767.72
2023-04-16T05:01:39.332Z,101771.38
2023-04-16T05:04:06.378Z,101786.00
2023-04-16T05:06:32.961Z,101783.66
2023-04-16T05:08:59.422Z,101770.81
2023-04-16T05:11:25.906Z,101782.47
2023-04-16T05:13:52.428Z,101782.31
2023-04-16T05:16:18.977Z,101783.56
2023-04-16T05:18:45.554Z,101790.78
2023-04-16T05:21:12.000Z,101800.06
2023-04-16T05:23:38.448Z,101801.88
2023-04-16T05:26:05.031Z,101809.25
2023-04-16T05:28:31.474Z,101807.16
2023-04-16T05:30:58.029Z,101807.75
2023-04-16T05:33:24.587Z,101810.09
2023-04-16T05:35:51.386Z,101805.63
2023-04-16T05:38:17.853Z,101803.53
2023-04-16T05:40:44.344Z,101813.22
2023-04-16T05:43:11.020Z,101815.47
2023-04-16T05:45:41.202Z,101808.63
2023-04-16T05:48:09.261Z,101816.03
2023-04-16T05:50:36.395Z,101822.09
2023-04-16T05:53:05.827Z,101826.41
2023-04-16T05:55:32.414Z,101825.31
2023-04-16T05:57:58.889Z,101824.66
2023-04-16T06:00:25.482Z,101822.97
2023-04-16T06:02:52.046Z,101833.03
2023-04-16T06:05:18.767Z,101834.72
2023-04-16T06:07:45.346Z,101839.13
2023-04-16T06:10:11.881Z,101838.66
2023-04-16T06:12:38.418Z,101835.03
2023-04-16T06:15:05.633Z,101833.03
2023-04-16T06:17:32.225Z,101834.22
2023-04-16T06:19:58.714Z,101837.75
2023-04-16T06:22:25.250Z,101843.66
2023-04-16T06:24:52.785Z,101844.66
2023-04-16T06:27:19.285Z,101846.06
2023-04-16T06:29:45.728Z,101843.81
2023-04-16T06:32:12.316Z,101852.53
2023-04-16T06:34:39.338Z,101852.09
2023-04-16T06:37:07.155Z,101858.94
2023-04-16T06:39:34.886Z,101865.25
2023-04-16T06:42:01.475Z,101864.09
2023-04-16T06:44:27.932Z,101866.59
2023-04-16T06:46:54.408Z,101866.28
2023-04-16T06:49:21.527Z,101871.72
2023-04-16T06:51:48.018Z,101875.28
2023-04-16T06:54:14.618Z,101876.66
2023-04-16T06:56:41.090Z,101875.19
2023-04-16T06:59:07.743Z,101869.94
2023-04-16T07:01:34.417Z,101866.59
2023-04-16T07:04:01.095Z,101863.06
2023-04-16T07:06:27.854Z,101864.06
2023-04-16T07:08:54.396Z,101882.72
2023-04-16T07:11:21.143Z,101877.31
2023-04-16T07:13:47.648Z,101875.44
2023-04-16T07:16:14.169Z,101887.09
2023-04-16T07:18:40.820Z,101882.81
2023-04-16T07:21:07.296Z,101883.53
2023-04-16T07:23:33.803Z,101894.91
2023-04-16T07:26:00.800Z,101889.63
2023-04-16T07:28:27.256Z,101887.31
2023-04-16T07:30:53.838Z,101890.97
2023-04-16T07:33:20.368Z,101886.66
2023-04-16T07:35:47.388Z,101888.50
2023-04-16T07:41:54.961Z,101891.19
2023-04-16T07:44:21.537Z,101902.59
2023-04-16T07:46:48.136Z,101895.34
2023-04-16T07:49:14.981Z,101914.19
2023-04-16T07:51:41.529Z,101907.28
2023-04-16T07:54:08.050Z,101906.47
2023-04-16T07:56:34.584Z,101910.84
2023-04-16T07:59:11.104Z,101916.63
2023-04-16T08:01:47.525Z,101910.50
2023-04-16T08:04:14.366Z,101911.88
2023-04-16T08:06:41.123Z,101921.44
2023-04-16T08:09:14.664Z,101916.72
2023-04-16T08:11:41.617Z,101923.88
2023-04-16T08:14:08.390Z,101926.00
2023-04-16T08:16:34.914Z,101932.72
2023-04-16T08:19:01.678Z,101924.75
2023-04-16T08:21:28.233Z,101931.16
2023-04-16T08:23:54.689Z,101919.63
2023-04-16T08:26:21.215Z,101928.53
2023-04-16T08:28:47.693Z,101928.41
2023-04-16T08:31:14.920Z,101935.50
2023-04-16T08:33:41.422Z,101941.41
2023-04-16T08:36:08.112Z,101941.09
2023-04-16T08:38:34.615Z,101954.63
2023-04-16T08:41:06.614Z,101948.88
2023-04-16T08:43:34.568Z,101959.09
2023-04-16T08:46:01.234Z,101958.97
2023-04-16T08:48:33.667Z,101960.13
2023-04-16T08:51:01.333Z,101965.13
2023-04-16T08:53:33.508Z,101967.91
2023-04-16T08:56:02.519Z,101966.75
2023-04-16T08:58:30.687Z,101969.50
2023-04-16T09:00:57.344Z,101965.69
2023-04-16T09:03:24.013Z,101972.06
2023-04-16T09:05:51.103Z,101967.66
2023-04-16T09:08:18.268Z,101967.97
2023-04-16T09:10:44.726Z,101971.75
2023-04-16T09:13:13.451Z,101965.03
2023-04-16T09:15:40.683Z,101970.16
2023-04-16T09:18:07.785Z,101969.00
2023-04-16T09:20:34.954Z,101982.19
2023-04-16T09:23:01.506Z,101982.75
2023-04-16T09:25:28.365Z,101988.59
2023-04-16T09:27:54.838Z,101984.94
2023-04-16T09:30:26.108Z,101986.28
2023-04-16T09:32:53.726Z,101982.97
2023-04-16T09:35:20.641Z,101988.59
2023-04-16T09:38:05.370Z,101993.19
2023-04-16T09:40:31.831Z,101994.16
2023-04-16T09:43:00.768Z,101994.44
2023-04-16T09:45:31.925Z,101993.75
2023-04-16T09:48:04.332Z,101993.91
2023-04-16T09:50:30.885Z,102008.47
2023-04-16T09:53:02.625Z,102007.38
2023-04-16T09:55:29.099Z,101999.75
2023-04-16T09:58:00.463Z,102003.78
2023-04-16T10:00:29.435Z,102014.88
2023-04-16T10:03:07.219Z,102010.00
2023-04-16T10:05:34.650Z,102019.13
2023-04-16T10:08:03.955Z,102020.91
2023-04-16T10:10:30.591Z,102013.44
2023-04-16T10:12:57.986Z,102016.22
2023-04-16T10:15:25.226Z,102025.03
2023-04-16T10:17:51.863Z,102026.84
2023-04-16T10:20:19.041Z,102033.53
2023-04-16T10:22:46.655Z,102031.81
2023-04-16T10:25:13.705Z,102020.66
2023-04-16T10:27:41.342Z,102031.28
2023-04-16T10:30:09.265Z,102034.25
2023-04-16T10:32:36.844Z,102042.03
2023-04-16T10:35:03.691Z,102039.53
2023-04-16T10:37:31.342Z,102043.34
2023-04-16T10:39:59.607Z,102040.41
2023-04-16T10:42:27.532Z,102048.16
2023-04-16T10:44:54.409Z,102049.00
2023-04-16T10:47:25.053Z,102047.00
2023-04-16T10:49:52.331Z,102048.31
2023-04-16T10:52:19.240Z,102053.50
2023-04-16T10:54:48.251Z,102053.88
2023-04-16T10:57:20.330Z,102059.28
2023-04-16T10:59:48.831Z,102058.69
2023-04-16T11:02:18.061Z,102064.38
2023-04-16T11:04:49.433Z,102054.13
2023-04-16T11:07:22.076Z,102051.66
2023-04-16T11:10:02.450Z,102055.41
2023-04-16T11:12:29.279Z,102060.22
2023-04-16T11:15:05.095Z,102058.88
2023-04-16T11:17:37.835Z,102063.28
2023-04-16T11:20:18.826Z,102065.13
2023-04-16T11:22:47.815Z,102061.41
2023-04-16T11:25:23.375Z,102067.09
2023-04-16T11:27:51.123Z,102072.41
2023-04-16T11:30:18.656Z,102067.78
2023-04-16T11:32:46.862Z,102066.00
2023-04-16T11:35:14.173Z,102072.53
2023-04-16T11:37:41.430Z,102076.38
2023-04-16T11:40:09.644Z,102078.78
2023-04-16T11:42:37.309Z,102077.53
2023-04-16T11:45:04.834Z,102084.97
2023-04-16T11:47:31.859Z,102080.91
2023-04-16T11:49:58.683Z,102082.66
2023-04-16T11:52:32.773Z,102074.09
2023-04-16T11:54:59.860Z,102080.16
2023-04-16T11:57:28.365Z,102085.50
2023-04-16T12:00:01.378Z,102082.38
2023-04-16T12:02:45.257Z,102095.16
2023-04-16T12:05:31.023Z,102089.09
2023-04-16T12:08:30.649Z,102083.75
2023-04-16T12:10:58.100Z,102088.88
2023-04-16T12:13:24.581Z,102088.56
2023-04-16T12:15:53.253Z,102083.22
2023-04-16T12:18:22.878Z,102090.56
2023-04-16T12:20:51.223Z,102091.88
2023-04-16T12:23:25.588Z,102087.59
2023-04-16T12:25:52.599Z,102096.16
2023-04-16T12:28:31.017Z,102096.34
2023-04-16T12:30:57.640Z,102092.38
2023-04-16T12:33:24.223Z,102092.56
2023-04-16T12:35:51.039Z,102092.19
2023-04-16T12:38:17.621Z,102098.91
2023-04-16T12:40:44.405Z,102094.53
2023-04-16T12:43:11.153Z,102097.41
2023-04-16T12:45:38.959Z,102090.63
2023-04-16T12:48:05.649Z,102087.09
2023-04-16T12:50:32.475Z,102091.78
2023-04-16T12:52:59.128Z,102094.88
2023-04-16T12:55:26.017Z,102089.00
2023-04-16T12:57:55.622Z,102090.97
2023-04-16T13:00:22.576Z,102086.53
2023-04-16T13:02:49.262Z,102085.19
2023-04-16T13:05:17.244Z,102085.63
2023-04-16T13:07:43.808Z,102085.47
2023-04-16T13:10:10.867Z,102082.19
2023-04-16T13:12:37.455Z,102087.38
2023-04-16T13:15:04.875Z,102084.75
2023-04-16T13:17:31.367Z,102086.78
2023-04-16T13:19:57.822Z,102082.59
2023-04-16T13:22:24.309Z,102090.13
2023-04-16T13:24:50.785Z,102092.09
2023-04-16T13:27:18.113Z,102092.19
2023-04-16T13:29:44.856Z,102089.56
2023-04-16T13:32:13.741Z,102089.66
2023-04-16T13:34:40.325Z,102091.06
2023-04-16T13:37:07.014Z,102093.75
2023-04-16T13:39:33.800Z,102095.00
2023-04-16T13:42:00.608Z,102084.06
2023-04-16T13:44:27.160Z,102093.00
2023-04-16T13:46:53.735Z,102087.69
2023-04-16T13:49:20.288Z,102091.84
2023-04-16T13:51:46.787Z,102084.38
2023-04-16T13:54:13.264Z,102084.72
2023-04-16T13:56:40.095Z,102080.19
2023-04-16T13:59:06.799Z,102079.09
2023-04-16T14:01:33.278Z,102084.59
2023-04-16T14:04:06.036Z,102089.56
2023-04-16T14:06:33.838Z,102080.13
2023-04-16T14:09:00.597Z,102075.94
2023-04-16T14:11:27.089Z,102080.00
2023-04-16T14:13:53.658Z,102084.19
2023-04-16T14:16:20.340Z,102082.75
2023-04-16T14:18:47.759Z,102092.66
2023-04-16T14:21:14.704Z,102091.56
2023-04-16T14:23:41.689Z,102093.19
2023-04-16T14:26:08.649Z,102087.91
2023-04-16T14:28:35.824Z,102096.53
2023-04-16T14:31:02.825Z,102097.00
2023-04-16T14:33:29.502Z,102100.81
2023-04-16T14:35:56.126Z,102092.94
2023-04-16T14:38:22.620Z,102097.13
2023-04-16T14:40:49.094Z,102094.41
2023-04-16T14:43:15.793Z,102094.34
2023-04-16T14:45:42.355Z,102087.47
2023-04-16T14:48:09.128Z,102086.69
2023-04-16T14:50:39.128Z,102095.66
2023-04-16T14:53:05.994Z,102093.53
2023-04-16T14:55:32.904Z,102097.06
2023-04-16T14:58:00.009Z,102090.59
2023-04-16T15:00:27.707Z,102100.44
2023-04-16T15:02:55.339Z,102091.84
2023-04-16T15:05:22.479Z,102109.84
2023-04-16T15:07:49.449Z,102102.44
2023-04-16T15:10:16.576Z,102101.69
2023-04-16T15:12:43.099Z,102101.28
2023-04-16T15:15:10.551Z,102102.22
2023-04-16T15:17:37.121Z,102099.28
2023-04-16T15:20:08.150Z,102104.38
2023-04-16T15:22:34.834Z,102104.22
2023-04-16T15:25:01.335Z,102101.16
2023-04-16T15:27:27.964Z,102102.22
2023-04-16T15:29:54.529Z,102103.22
2023-04-16T15:32:21.107Z,102105.16
2023-04-16T15:34:47.572Z,102107.06
2023-04-16T15:37:16.141Z,102112.00
2023-04-16T15:39:42.980Z,102107.59
2023-04-16T15:42:11.473Z,102115.88
2023-04-16T15:44:37.967Z,102108.94
2023-04-16T15:47:06.303Z,102114.53
2023-04-16T15:49:33.109Z,102117.78
2023-04-16T15:52:00.189Z,102117.69
2023-04-16T15:54:27.210Z,102124.13
2023-04-16T15:56:53.749Z,102125.03
2023-04-16T15:59:20.259Z,102117.84
2023-04-16T16:01:46.795Z,102117.19
2023-04-16T16:04:13.608Z,102109.56
2023-04-16T16:06:40.439Z,102120.94
2023-04-16T16:09:06.884Z,102135.28
2023-04-16T16:11:33.554Z,102129.72
2023-04-16T16:14:02.854Z,102132.84
2023-04-16T16:16:29.345Z,102143.56
2023-04-16T16:18:55.978Z,102137.81
2023-04-16T16:21:22.711Z,102139.03
2023-04-16T16:23:49.278Z,102139.22
2023-04-16T16:26:16.047Z,102143.03
2023-04-16T16:28:44.628Z,102140.69
2023-04-16T16:31:12.259Z,102149.19
2023-04-16T16:33:40.485Z,102145.38
2023-04-16T16:36:10.371Z,102150.16
2023-04-16T16:38:36.909Z,102150.59
2023-04-16T16:41:03.357Z,102150.72
2023-04-16T16:43:29.858Z,102148.16
2023-04-16T16:45:56.377Z,102146.59
2023-04-16T16:48:22.894Z,102141.72
2023-04-16T16:50:49.352Z,102144.59
2023-04-16T16:53:15.845Z,102149.66
2023-04-16T16:55:42.278Z,102153.59
2023-04-16T16:58:09.705Z,102143.97
2023-04-16T17:00:36.333Z,102146.03
2023-04-16T17:03:03.281Z,102146.34
2023-04-16T17:05:29.896Z,102144.50
2023-04-16T17:07:56.373Z,102142.06
2023-04-16T17:10:23.146Z,102143.59
2023-04-16T17:12:50.490Z,102144.06
2023-04-16T17:15:20.504Z,102145.72
2023-04-16T17:17:48.254Z,102142.44
2023-04-16T17:20:14.768Z,102141.91
2023-04-16T17:22:41.826Z,102143.81
2023-04-16T17:25:08.637Z,102136.91
2023-04-16T17:27:35.207Z,102146.75
2023-04-16T17:30:02.771Z,102143.81
2023-04-16T17:32:29.811Z,102149.91
2023-04-16T17:34:56.445Z,102153.66
2023-04-16T17:37:23.490Z,102150.94
2023-04-16T17:39:50.448Z,102151.41
2023-04-16T17:42:17.235Z,102161.19
2023-04-16T17:44:44.918Z,102157.84
2023-04-16T17:47:11.811Z,102162.78
2023-04-16T17:49:38.255Z,102152.38
2023-04-16T17:52:04.859Z,102166.09
2023-04-16T17:54:31.525Z,102168.00
2023-04-16T17:56:58.634Z,102170.72
2023-04-16T17:59:25.090Z,102167.06
2023-04-16T18:01:51.635Z,102171.41
2023-04-16T18:04:18.628Z,102171.78
2023-04-16T18:06:45.647Z,102173.56
2023-04-16T18:09:12.347Z,102178.31
2023-04-16T18:11:38.853Z,102181.00
2023-04-16T18:14:05.391Z,102181.81
2023-04-16T18:16:32.251Z,102181.63
2023-04-16T18:18:59.097Z,102188.91
2023-04-16T18:21:25.969Z,102196.09
2023-04-16T18:23:52.437Z,102198.47
2023-04-16T18:26:21.096Z,102203.22
2023-04-16T18:28:49.293Z,102211.41
2023-04-16T18:31:15.967Z,102212.94
2023-04-16T18:33:54.139Z,102204.97
2023-04-16T18:36:23.631Z,102222.06
2023-04-16T18:39:00.021Z,102215.28
2023-04-16T18:41:27.237Z,102219.03
2023-04-16T18:43:53.716Z,102223.97
2023-04-16T18:46:20.321Z,102225.34
2023-04-16T18:48:46.891Z,102231.31
2023-04-16T18:51:15.462Z,102229.78
2023-04-16T18:53:44.452Z,102235.16
2023-04-16T18:56:11.634Z,102237.91
2023-04-16T18:58:38.223Z,102247.16
2023-04-16T19:01:07.675Z,102238.34
2023-04-16T19:03:34.360Z,102240.47
2023-04-16T19:06:01.111Z,102246.75
2023-04-16T19:08:27.714Z,102253.31
2023-04-16T19:10:54.255Z,102249.97
2023-04-16T19:13:20.732Z,102246.56
2023-04-16T19:15:47.398Z,102254.84
2023-04-16T19:18:13.950Z,102251.81
2023-04-16T19:20:40.446Z,102253.56
2023-04-16T19:23:09.021Z,102254.38
2023-04-16T19:25:36.527Z,102254.50
2023-04-16T19:28:06.109Z,102255.84
2023-04-16T19:30:32.653Z,102266.03
2023-04-16T19:32:59.168Z,102265.63
2023-04-16T19:35:25.814Z,102261.47
2023-04-16T19:37:52.375Z,102264.81
2023-04-16T19:40:19.137Z,102270.13
2023-04-16T19:42:45.642Z,102269.28
2023-04-16T19:45:12.312Z,102266.34
2023-04-16T19:47:38.920Z,102279.16
2023-04-16T19:50:06.073Z,102272.59
2023-04-16T19:52:37.408Z,102275.00
2023-04-16T19:55:04.859Z,102273.72
2023-04-16T19:57:31.293Z,102272.00
2023-04-16T19:59:57.823Z,102263.28
2023-04-16T20:02:24.499Z,102265.00
2023-04-16T20:04:52.938Z,102267.72
2023-04-16T20:07:19.935Z,102270.59
2023-04-16T20:09:46.584Z,102272.69
2023-04-16T20:12:13.018Z,102264.00
2023-04-16T20:14:39.496Z,102271.59
2023-04-16T20:17:10.085Z,102271.09
2023-04-16T20:19:38.424Z,102274.72
2023-04-16T20:22:05.123Z,102279.06
2023-04-16T20:24:31.680Z,102277.94
2023-04-16T20:26:58.107Z,102281.94
2023-04-16T20:29:24.565Z,102280.94
2023-04-16T20:31:53.143Z,102281.81
2023-04-16T20:34:19.626Z,102282.88
2023-04-16T20:36:46.068Z,102278.91
2023-04-16T20:39:12.840Z,102285.13
2023-04-16T20:41:44.037Z,102283.81
2023-04-16T20:44:18.105Z,102278.78
2023-04-16T20:46:49.440Z,102279.97
2023-04-16T20:49:17.717Z,102281.41
2023-04-16T20:51:44.421Z,102275.91
2023-04-16T20:54:11.452Z,102287.50
2023-04-16T20:56:37.919Z,102285.56
2023-04-16T20:59:04.599Z,102280.66
2023-04-16T21:01:31.113Z,102287.34
2023-04-16T21:03:57.717Z,102287.97
2023-04-16T21:06:24.314Z,102276.91
2023-04-16T21:08:50.863Z,102286.34
2023-04-16T21:11:17.448Z,102285.56
2023-04-16T21:13:43.986Z,102289.09
2023-04-16T21:16:12.446Z,102281.13
2023-04-16T21:18:39.162Z,102288.84
2023-04-16T21:21:06.023Z,102288.03
2023-04-16T21:23:32.585Z,102285.69
2023-04-16T21:25:59.081Z,102282.75
2023-04-16T21:28:25.790Z,102292.78
2023-04-16T21:30:52.776Z,102290.56
2023-04-16T21:33:19.296Z,102293.78
2023-04-16T21:35:51.229Z,102294.31
2023-04-16T21:38:17.886Z,102293.78
2023-04-16T21:40:45.989Z,102286.09
2023-04-16T21:43:12.451Z,102289.69
2023-04-16T21:45:39.784Z,102290.69
2023-04-16T21:48:06.625Z,102287.34
2023-04-16T21:50:33.157Z,102294.06
2023-04-16T21:52:59.636Z,102294.25
2023-04-16T21:55:26.191Z,102289.91
2023-04-16T21:57:52.670Z,102291.09
2023-04-16T22:00:19.325Z,102296.53
2023-04-16T22:02:45.910Z,102291.38
2023-04-16T22:05:12.721Z,102296.47
2023-04-16T22:07:39.239Z,102289.81
2023-04-16T22:10:06.800Z,102293.19
2023-04-16T22:12:33.271Z,102285.56
2023-04-16T22:15:02.959Z,102291.78
2023-04-16T22:17:30.151Z,102290.97
2023-04-16T22:19:57.768Z,102294.25
2023-04-16T22:22:24.326Z,102290.66
2023-04-16T22:24:51.831Z,102297.59
2023-04-16T22:27:18.668Z,102296.91
2023-04-16T22:29:45.251Z,102299.53
2023-04-16T22:32:12.235Z,102303.34
2023-04-16T22:34:39.461Z,102300.94
2023-04-16T22:37:08.291Z,102305.22
2023-04-16T22:39:35.828Z,102294.13
2023-04-16T22:42:02.889Z,102294.72
2023-04-16T22:44:30.691Z,102295.94
2023-04-16T22:46:57.765Z,102297.00
2023-04-16T22:49:24.790Z,102295.50
2023-04-16T22:51:51.727Z,102295.50
2023-04-16T22:54:18.801Z,102292.13
2023-04-16T22:56:48.600Z,102297.22
2023-04-16T22:59:15.172Z,102294.34
2023-04-16T23:01:42.751Z,102295.63
2023-04-16T23:04:09.369Z,102300.28
2023-04-16T23:06:35.853Z,102295.00
2023-04-16T23:09:02.515Z,102296.03
2023-04-16T23:11:29.023Z,102296.38
2023-04-16T23:13:55.791Z,102290.22
2023-04-16T23:16:22.405Z,102291.22
2023-04-16T23:18:48.926Z,102289.72
2023-04-16T23:21:15.471Z,102291.53
2023-04-16T23:23:41.988Z,102296.75
2023-04-16T23:26:08.495Z,102294.63
2023-04-16T23:28:34.948Z,102299.00
2023-04-16T23:31:01.521Z,102298.06
2023-04-16T23:33:27.989Z,102290.66
2023-04-16T23:35:56.818Z,102291.91
2023-04-16T23:38:23.327Z,102298.53
2023-04-16T23:40:49.969Z,102295.00
2023-04-16T23:43:16.518Z,102291.81
2023-04-16T23:45:43.021Z,102295.50
2023-04-16T23:48:09.534Z,102294.72
2023-04-16T23:50:36.009Z,102298.88
2023-04-16T23:53:02.483Z,102295.09
2023-04-16T23:55:29.002Z,102297.81
2023-04-16T23:57:55.536Z,102303.56
